sensor_id;sensor_type;location;lat;lon;timestamp;P1;durP1;ratioP1;P2;durP2;ratioP2
43511;SDS011;34054;52.100;5.116;2022-11-20T00:00:47;17.20;;;13.02;;
43511;SDS011;34054;52.100;5.116;2022-11-20T00:01:19;17.23;;;14.98;;
43511;SDS011;34054;52.100;5.116;2022-11-20T00:01:54;14.38;;;12.82;;
43511;SDS011;34054;52.100;5.116;2022-11-20T00:02:26;16.77;;;13.50;;
43511;SDS011;34054;52.100;5.116;2022-11-20T00:02:58;17.60;;;15.77;;
43511;SDS011;34054;52.100;5.116;2022-11-20T00:03:31;13.57;;;10.73;;
43511;SDS011;34054;52.100;5.116;2022-11-20T00:04:02;19.20;;;12.13;;
43511;SDS011;34054;52.100;5.116;2022-11-20T00:04:35;12.48;;;11.18;;
43511;SDS011;34054;52.100;5.116;2022-11-20T00:05:07;17.33;;;13.30;;
43511;SDS011;34054;52.100;5.116;2022-11-20T00:05:39;16.08;;;14.13;;
43511;SDS011;34054;52.100;5.116;2022-11-20T00:06:13;16.30;;;12.45;;
43511;SDS011;34054;52.100;5.116;2022-11-20T00:06:47;19.70;;;15.07;;
43511;SDS011;34054;52.100;5.116;2022-11-20T00:07:19;15.93;;;13.82;;
43511;SDS011;34054;52.100;5.116;2022-11-20T00:07:52;14.93;;;13.25;;
43511;SDS011;34054;52.100;5.116;2022-11-20T00:08:25;19.45;;;13.38;;
43511;SDS011;34054;52.100;5.116;2022-11-20T00:08:58;14.35;;;12.70;;
43511;SDS011;34054;52.100;5.116;2022-11-20T00:09:32;16.92;;;15.07;;
43511;SDS011;34054;52.100;5.116;2022-11-20T00:10:04;13.98;;;12.45;;
43511;SDS011;34054;52.100;5.116;2022-11-20T00:10:37;17.45;;;13.50;;
43511;SDS011;34054;52.100;5.116;2022-11-20T00:11:11;15.13;;;13.15;;
43511;SDS011;34054;52.100;5.116;2022-11-20T00:11:46;18.45;;;14.07;;
43511;SDS011;34054;52.100;5.116;2022-11-20T00:12:18;14.05;;;11.32;;
43511;SDS011;34054;52.100;5.116;2022-11-20T00:12:50;15.60;;;13.93;;
43511;SDS011;34054;52.100;5.116;2022-11-20T00:13:22;15.85;;;14.18;;
43511;SDS011;34054;52.100;5.116;2022-11-20T00:13:55;17.52;;;12.77;;
43511;SDS011;34054;52.100;5.116;2022-11-20T00:14:31;14.27;;;12.00;;
43511;SDS011;34054;52.100;5.116;2022-11-20T00:15:03;23.08;;;15.88;;
43511;SDS011;34054;52.100;5.116;2022-11-20T00:15:36;16.20;;;14.43;;
43511;SDS011;34054;52.100;5.116;2022-11-20T00:16:12;15.23;;;13.55;;
43511;SDS011;34054;52.100;5.116;2022-11-20T00:16:47;20.33;;;13.30;;
43511;SDS011;34054;52.100;5.116;2022-11-20T00:17:20;14.52;;;12.10;;
43511;SDS011;34054;52.100;5.116;2022-11-20T00:17:52;12.75;;;11.45;;
43511;SDS011;34054;52.100;5.116;2022-11-20T00:18:24;14.45;;;12.63;;
43511;SDS011;34054;52.100;5.116;2022-11-20T00:18:57;17.10;;;13.10;;
43511;SDS011;34054;52.100;5.116;2022-11-20T00:19:29;15.38;;;12.25;;
43511;SDS011;34054;52.100;5.116;2022-11-20T00:20:01;14.32;;;11.98;;
43511;SDS011;34054;52.100;5.116;2022-11-20T00:20:34;14.93;;;12.75;;
43511;SDS011;34054;52.100;5.116;2022-11-20T00:21:06;17.77;;;14.50;;
43511;SDS011;34054;52.100;5.116;2022-11-20T00:21:42;16.42;;;11.63;;
43511;SDS011;34054;52.100;5.116;2022-11-20T00:22:15;18.38;;;14.45;;
43511;SDS011;34054;52.100;5.116;2022-11-20T00:22:47;16.77;;;14.05;;
43511;SDS011;34054;52.100;5.116;2022-11-20T00:23:18;14.13;;;12.73;;
43511;SDS011;34054;52.100;5.116;2022-11-20T00:23:53;14.25;;;12.32;;
43511;SDS011;34054;52.100;5.116;2022-11-20T00:24:27;17.70;;;11.80;;
43511;SDS011;34054;52.100;5.116;2022-11-20T00:24:59;15.98;;;12.23;;
43511;SDS011;34054;52.100;5.116;2022-11-20T00:25:31;14.32;;;12.88;;
43511;SDS011;34054;52.100;5.116;2022-11-20T00:26:05;17.95;;;14.32;;
43511;SDS011;34054;52.100;5.116;2022-11-20T00:26:40;15.90;;;13.75;;
43511;SDS011;34054;52.100;5.116;2022-11-20T00:27:12;12.90;;;11.65;;
43511;SDS011;34054;52.100;5.116;2022-11-20T00:27:44;13.80;;;12.38;;
43511;SDS011;34054;52.100;5.116;2022-11-20T00:28:16;14.70;;;12.43;;
43511;SDS011;34054;52.100;5.116;2022-11-20T00:28:49;16.83;;;13.02;;
43511;SDS011;34054;52.100;5.116;2022-11-20T00:29:23;15.18;;;12.65;;
43511;SDS011;34054;52.100;5.116;2022-11-20T00:29:56;15.43;;;11.98;;
43511;SDS011;34054;52.100;5.116;2022-11-20T00:30:27;13.57;;;12.18;;
43511;SDS011;34054;52.100;5.116;2022-11-20T00:31:02;16.98;;;11.95;;
43511;SDS011;34054;52.100;5.116;2022-11-20T00:31:36;13.43;;;11.85;;
43511;SDS011;34054;52.100;5.116;2022-11-20T00:32:07;12.88;;;11.57;;
43511;SDS011;34054;52.100;5.116;2022-11-20T00:32:39;13.73;;;11.93;;
43511;SDS011;34054;52.100;5.116;2022-11-20T00:33:12;13.95;;;12.38;;
43511;SDS011;34054;52.100;5.116;2022-11-20T00:33:44;18.65;;;14.48;;
43511;SDS011;34054;52.100;5.116;2022-11-20T00:34:16;16.05;;;13.30;;
43511;SDS011;34054;52.100;5.116;2022-11-20T00:34:49;17.85;;;14.18;;
43511;SDS011;34054;52.100;5.116;2022-11-20T00:35:21;12.77;;;11.48;;
43511;SDS011;34054;52.100;5.116;2022-11-20T00:35:52;13.68;;;11.65;;
43511;SDS011;34054;52.100;5.116;2022-11-20T00:36:24;14.82;;;12.23;;
43511;SDS011;34054;52.100;5.116;2022-11-20T00:37:00;14.63;;;13.20;;
43511;SDS011;34054;52.100;5.116;2022-11-20T00:37:31;18.15;;;14.18;;
43511;SDS011;34054;52.100;5.116;2022-11-20T00:38:03;16.02;;;13.15;;
43511;SDS011;34054;52.100;5.116;2022-11-20T00:38:36;16.70;;;12.80;;
43511;SDS011;34054;52.100;5.116;2022-11-20T00:39:09;17.10;;;12.88;;
43511;SDS011;34054;52.100;5.116;2022-11-20T00:39:41;13.07;;;11.70;;
43511;SDS011;34054;52.100;5.116;2022-11-20T00:40:13;15.82;;;13.27;;
43511;SDS011;34054;52.100;5.116;2022-11-20T00:40:45;15.18;;;13.45;;
43511;SDS011;34054;52.100;5.116;2022-11-20T00:41:17;16.52;;;13.48;;
43511;SDS011;34054;52.100;5.116;2022-11-20T00:41:48;16.20;;;14.50;;
43511;SDS011;34054;52.100;5.116;2022-11-20T00:42:21;16.42;;;13.18;;
43511;SDS011;34054;52.100;5.116;2022-11-20T00:42:53;16.52;;;12.25;;
43511;SDS011;34054;52.100;5.116;2022-11-20T00:43:25;13.82;;;11.50;;
43511;SDS011;34054;52.100;5.116;2022-11-20T00:43:59;18.50;;;12.88;;
43511;SDS011;34054;52.100;5.116;2022-11-20T00:44:31;15.80;;;13.30;;
43511;SDS011;34054;52.100;5.116;2022-11-20T00:45:03;17.80;;;12.93;;
43511;SDS011;34054;52.100;5.116;2022-11-20T00:45:36;16.70;;;13.88;;
43511;SDS011;34054;52.100;5.116;2022-11-20T00:46:13;14.90;;;11.27;;
43511;SDS011;34054;52.100;5.116;2022-11-20T00:46:47;18.75;;;14.50;;
43511;SDS011;34054;52.100;5.116;2022-11-20T00:47:20;16.13;;;13.02;;
43511;SDS011;34054;52.100;5.116;2022-11-20T00:47:51;18.73;;;12.57;;
43511;SDS011;34054;52.100;5.116;2022-11-20T00:48:23;16.13;;;14.50;;
43511;SDS011;34054;52.100;5.116;2022-11-20T00:48:56;12.57;;;11.35;;
43511;SDS011;34054;52.100;5.116;2022-11-20T00:49:28;16.60;;;12.85;;
43511;SDS011;34054;52.100;5.116;2022-11-20T00:50:00;14.82;;;11.80;;
43511;SDS011;34054;52.100;5.116;2022-11-20T00:50:32;14.48;;;12.93;;
43511;SDS011;34054;52.100;5.116;2022-11-20T00:51:04;19.23;;;14.73;;
43511;SDS011;34054;52.100;5.116;2022-11-20T00:51:36;13.23;;;11.90;;
43511;SDS011;34054;52.100;5.116;2022-11-20T00:52:09;15.13;;;12.52;;
43511;SDS011;34054;52.100;5.116;2022-11-20T00:52:40;13.23;;;11.88;;
43511;SDS011;34054;52.100;5.116;2022-11-20T00:53:12;14.57;;;12.50;;
43511;SDS011;34054;52.100;5.116;2022-11-20T00:53:45;14.85;;;11.10;;
43511;SDS011;34054;52.100;5.116;2022-11-20T00:54:19;14.82;;;13.25;;
43511;SDS011;34054;52.100;5.116;2022-11-20T00:54:51;11.90;;;10.82;;
43511;SDS011;34054;52.100;5.116;2022-11-20T00:55:23;15.90;;;12.45;;
43511;SDS011;34054;52.100;5.116;2022-11-20T00:55:56;12.45;;;11.13;;
43511;SDS011;34054;52.100;5.116;2022-11-20T00:56:30;15.38;;;12.75;;
43511;SDS011;34054;52.100;5.116;2022-11-20T00:57:01;14.82;;;13.23;;
43511;SDS011;34054;52.100;5.116;2022-11-20T00:57:34;16.27;;;12.55;;
43511;SDS011;34054;52.100;5.116;2022-11-20T00:58:05;17.60;;;12.52;;
43511;SDS011;34054;52.100;5.116;2022-11-20T00:58:38;13.93;;;12.05;;
43511;SDS011;34054;52.100;5.116;2022-11-20T00:59:12;17.65;;;14.02;;
43511;SDS011;34054;52.100;5.116;2022-11-20T00:59:44;16.30;;;13.38;;
43511;SDS011;34054;52.100;5.116;2022-11-20T01:00:15;13.02;;;11.77;;
43511;SDS011;34054;52.100;5.116;2022-11-20T01:00:48;16.50;;;11.45;;
43511;SDS011;34054;52.100;5.116;2022-11-20T01:01:21;18.95;;;13.00;;
43511;SDS011;34054;52.100;5.116;2022-11-20T01:01:55;20.00;;;12.55;;
43511;SDS011;34054;52.100;5.116;2022-11-20T01:02:27;14.10;;;11.02;;
43511;SDS011;34054;52.100;5.116;2022-11-20T01:02:59;11.32;;;8.55;;
43511;SDS011;34054;52.100;5.116;2022-11-20T01:03:31;14.88;;;13.13;;
43511;SDS011;34054;52.100;5.116;2022-11-20T01:04:03;15.25;;;12.80;;
43511;SDS011;34054;52.100;5.116;2022-11-20T01:04:36;14.90;;;12.50;;
43511;SDS011;34054;52.100;5.116;2022-11-20T01:05:08;15.57;;;11.20;;
43511;SDS011;34054;52.100;5.116;2022-11-20T01:05:39;15.60;;;12.02;;
43511;SDS011;34054;52.100;5.116;2022-11-20T01:06:13;15.88;;;12.60;;
43511;SDS011;34054;52.100;5.116;2022-11-20T01:06:48;13.77;;;12.02;;
43511;SDS011;34054;52.100;5.116;2022-11-20T01:07:19;15.50;;;13.25;;
43511;SDS011;34054;52.100;5.116;2022-11-20T01:07:52;14.18;;;10.90;;
43511;SDS011;34054;52.100;5.116;2022-11-20T01:08:24;13.05;;;11.23;;
43511;SDS011;34054;52.100;5.116;2022-11-20T01:08:57;14.63;;;11.95;;
43511;SDS011;34054;52.100;5.116;2022-11-20T01:09:34;12.82;;;11.52;;
43511;SDS011;34054;52.100;5.116;2022-11-20T01:10:06;16.67;;;11.52;;
43511;SDS011;34054;52.100;5.116;2022-11-20T01:10:39;16.98;;;12.32;;
43511;SDS011;34054;52.100;5.116;2022-11-20T01:11:13;14.45;;;12.65;;
43511;SDS011;34054;52.100;5.116;2022-11-20T01:11:46;13.93;;;12.18;;
43511;SDS011;34054;52.100;5.116;2022-11-20T01:12:19;12.65;;;11.32;;
43511;SDS011;34054;52.100;5.116;2022-11-20T01:12:51;16.48;;;11.85;;
43511;SDS011;34054;52.100;5.116;2022-11-20T01:13:38;14.77;;;12.30;;
43511;SDS011;34054;52.100;5.116;2022-11-20T01:14:12;12.35;;;11.07;;
43511;SDS011;34054;52.100;5.116;2022-11-20T01:14:47;17.48;;;12.90;;
43511;SDS011;34054;52.100;5.116;2022-11-20T01:15:19;12.50;;;11.13;;
43511;SDS011;34054;52.100;5.116;2022-11-20T01:15:50;17.58;;;12.25;;
43511;SDS011;34054;52.100;5.116;2022-11-20T01:16:23;14.98;;;11.98;;
43511;SDS011;34054;52.100;5.116;2022-11-20T01:16:59;14.48;;;11.30;;
43511;SDS011;34054;52.100;5.116;2022-11-20T01:17:30;17.55;;;13.00;;
43511;SDS011;34054;52.100;5.116;2022-11-20T01:18:03;12.63;;;11.25;;
43511;SDS011;34054;52.100;5.116;2022-11-20T01:18:36;17.88;;;12.75;;
43511;SDS011;34054;52.100;5.116;2022-11-20T01:19:10;13.55;;;12.10;;
43511;SDS011;34054;52.100;5.116;2022-11-20T01:19:48;16.02;;;12.30;;
43511;SDS011;34054;52.100;5.116;2022-11-20T01:20:20;14.48;;;12.82;;
43511;SDS011;34054;52.100;5.116;2022-11-20T01:20:52;13.82;;;12.25;;
43511;SDS011;34054;52.100;5.116;2022-11-20T01:21:24;14.18;;;11.10;;
43511;SDS011;34054;52.100;5.116;2022-11-20T01:22:00;13.18;;;11.85;;
43511;SDS011;34054;52.100;5.116;2022-11-20T01:22:31;15.82;;;11.77;;
43511;SDS011;34054;52.100;5.116;2022-11-20T01:23:04;20.17;;;13.10;;
43511;SDS011;34054;52.100;5.116;2022-11-20T01:23:37;12.52;;;11.25;;
43511;SDS011;34054;52.100;5.116;2022-11-20T01:24:11;14.43;;;11.93;;
43511;SDS011;34054;52.100;5.116;2022-11-20T01:24:48;17.08;;;12.30;;
43511;SDS011;34054;52.100;5.116;2022-11-20T01:25:19;15.68;;;13.13;;
43511;SDS011;34054;52.100;5.116;2022-11-20T01:25:51;13.57;;;10.90;;
43511;SDS011;34054;52.100;5.116;2022-11-20T01:26:23;12.18;;;10.70;;
43511;SDS011;34054;52.100;5.116;2022-11-20T01:26:58;18.17;;;12.93;;
43511;SDS011;34054;52.100;5.116;2022-11-20T01:27:30;14.85;;;13.35;;
43511;SDS011;34054;52.100;5.116;2022-11-20T01:28:02;13.98;;;11.65;;
43511;SDS011;34054;52.100;5.116;2022-11-20T01:28:34;14.02;;;12.52;;
43511;SDS011;34054;52.100;5.116;2022-11-20T01:29:07;12.38;;;11.10;;
43511;SDS011;34054;52.100;5.116;2022-11-20T01:29:43;14.45;;;11.10;;
43511;SDS011;34054;52.100;5.116;2022-11-20T01:30:16;14.18;;;10.52;;
43511;SDS011;34054;52.100;5.116;2022-11-20T01:30:47;15.85;;;13.95;;
43511;SDS011;34054;52.100;5.116;2022-11-20T01:31:19;11.20;;;9.70;;
43511;SDS011;34054;52.100;5.116;2022-11-20T01:31:53;13.50;;;11.88;;
43511;SDS011;34054;52.100;5.116;2022-11-20T01:32:25;14.77;;;13.18;;
43511;SDS011;34054;52.100;5.116;2022-11-20T01:32:57;13.73;;;12.25;;
43511;SDS011;34054;52.100;5.116;2022-11-20T01:33:29;14.10;;;12.43;;
43511;SDS011;34054;52.100;5.116;2022-11-20T01:34:02;12.90;;;10.93;;
43511;SDS011;34054;52.100;5.116;2022-11-20T01:34:36;15.45;;;10.45;;
43511;SDS011;34054;52.100;5.116;2022-11-20T01:35:08;14.63;;;12.63;;
43511;SDS011;34054;52.100;5.116;2022-11-20T01:35:41;13.85;;;11.57;;
43511;SDS011;34054;52.100;5.116;2022-11-20T01:36:13;13.90;;;11.43;;
43511;SDS011;34054;52.100;5.116;2022-11-20T01:36:46;12.98;;;11.05;;
43511;SDS011;34054;52.100;5.116;2022-11-20T01:37:19;13.30;;;11.32;;
43511;SDS011;34054;52.100;5.116;2022-11-20T01:37:50;12.90;;;11.13;;
43511;SDS011;34054;52.100;5.116;2022-11-20T01:38:22;14.30;;;11.82;;
43511;SDS011;34054;52.100;5.116;2022-11-20T01:38:55;13.82;;;11.02;;
43511;SDS011;34054;52.100;5.116;2022-11-20T01:39:29;14.75;;;12.13;;
43511;SDS011;34054;52.100;5.116;2022-11-20T01:40:02;12.70;;;11.40;;
43511;SDS011;34054;52.100;5.116;2022-11-20T01:40:36;16.52;;;11.88;;
43511;SDS011;34054;52.100;5.116;2022-11-20T01:41:08;19.63;;;13.48;;
43511;SDS011;34054;52.100;5.116;2022-11-20T01:42:02;12.52;;;11.27;;
43511;SDS011;34054;52.100;5.116;2022-11-20T01:42:53;19.52;;;12.88;;
43511;SDS011;34054;52.100;5.116;2022-11-20T01:43:53;14.02;;;12.48;;
43511;SDS011;34054;52.100;5.116;2022-11-20T01:46:45;14.80;;;11.30;;
43511;SDS011;34054;52.100;5.116;2022-11-20T01:47:30;15.13;;;13.50;;
43511;SDS011;34054;52.100;5.116;2022-11-20T01:48:08;13.07;;;11.32;;
43511;SDS011;34054;52.100;5.116;2022-11-20T01:48:41;11.82;;;10.60;;
43511;SDS011;34054;52.100;5.116;2022-11-20T01:49:22;20.02;;;12.48;;
43511;SDS011;34054;52.100;5.116;2022-11-20T01:49:58;17.75;;;12.63;;
43511;SDS011;34054;52.100;5.116;2022-11-20T01:50:36;14.23;;;11.98;;
43511;SDS011;34054;52.100;5.116;2022-11-20T01:51:12;14.38;;;11.98;;
43511;SDS011;34054;52.100;5.116;2022-11-20T01:51:52;12.20;;;10.93;;
43511;SDS011;34054;52.100;5.116;2022-11-20T01:52:32;14.32;;;12.82;;
43511;SDS011;34054;52.100;5.116;2022-11-20T01:53:12;13.82;;;11.73;;
43511;SDS011;34054;52.100;5.116;2022-11-20T01:53:50;15.60;;;13.93;;
43511;SDS011;34054;52.100;5.116;2022-11-20T01:54:26;11.85;;;10.63;;
43511;SDS011;34054;52.100;5.116;2022-11-20T01:55:09;13.10;;;11.48;;
43511;SDS011;34054;52.100;5.116;2022-11-20T01:55:47;15.32;;;12.43;;
43511;SDS011;34054;52.100;5.116;2022-11-20T01:56:22;16.02;;;11.98;;
43511;SDS011;34054;52.100;5.116;2022-11-20T01:56:56;13.70;;;10.85;;
43511;SDS011;34054;52.100;5.116;2022-11-20T01:57:31;14.18;;;11.63;;
43511;SDS011;34054;52.100;5.116;2022-11-20T01:58:06;16.85;;;12.40;;
43511;SDS011;34054;52.100;5.116;2022-11-20T01:58:39;13.57;;;11.77;;
43511;SDS011;34054;52.100;5.116;2022-11-20T01:59:21;14.80;;;12.75;;
43511;SDS011;34054;52.100;5.116;2022-11-20T02:00:00;12.98;;;11.70;;
43511;SDS011;34054;52.100;5.116;2022-11-20T02:00:37;13.70;;;12.07;;
43511;SDS011;34054;52.100;5.116;2022-11-20T02:01:10;14.18;;;11.82;;
43511;SDS011;34054;52.100;5.116;2022-11-20T02:01:44;18.15;;;11.75;;
43511;SDS011;34054;52.100;5.116;2022-11-20T02:02:16;12.43;;;10.02;;
43511;SDS011;34054;52.100;5.116;2022-11-20T02:02:51;16.02;;;11.73;;
43511;SDS011;34054;52.100;5.116;2022-11-20T02:03:29;15.18;;;13.57;;
43511;SDS011;34054;52.100;5.116;2022-11-20T02:04:01;15.80;;;12.63;;
43511;SDS011;34054;52.100;5.116;2022-11-20T02:04:35;15.48;;;12.70;;
43511;SDS011;34054;52.100;5.116;2022-11-20T02:05:10;14.45;;;12.95;;
43511;SDS011;34054;52.100;5.116;2022-11-20T02:05:54;13.52;;;12.13;;
43511;SDS011;34054;52.100;5.116;2022-11-20T02:06:35;15.00;;;10.95;;
43511;SDS011;34054;52.100;5.116;2022-11-20T02:07:11;13.90;;;11.98;;
43511;SDS011;34054;52.100;5.116;2022-11-20T02:07:46;13.98;;;12.18;;
43511;SDS011;34054;52.100;5.116;2022-11-20T02:08:19;19.08;;;13.13;;
43511;SDS011;34054;52.100;5.116;2022-11-20T02:08:52;11.65;;;10.32;;
43511;SDS011;34054;52.100;5.116;2022-11-20T02:09:26;12.32;;;10.25;;
43511;SDS011;34054;52.100;5.116;2022-11-20T02:09:59;15.65;;;12.52;;
43511;SDS011;34054;52.100;5.116;2022-11-20T02:10:32;13.07;;;11.77;;
43511;SDS011;34054;52.100;5.116;2022-11-20T02:11:05;14.18;;;12.05;;
43511;SDS011;34054;52.100;5.116;2022-11-20T02:11:38;15.27;;;12.13;;
43511;SDS011;34054;52.100;5.116;2022-11-20T02:12:10;12.30;;;10.57;;
43511;SDS011;34054;52.100;5.116;2022-11-20T02:13:02;17.60;;;12.13;;
43511;SDS011;34054;52.100;5.116;2022-11-20T02:13:49;16.52;;;11.20;;
43511;SDS011;34054;52.100;5.116;2022-11-20T02:14:21;12.73;;;11.30;;
43511;SDS011;34054;52.100;5.116;2022-11-20T02:14:55;16.05;;;12.27;;
43511;SDS011;34054;52.100;5.116;2022-11-20T02:15:29;13.02;;;10.40;;
43511;SDS011;34054;52.100;5.116;2022-11-20T02:16:01;13.65;;;12.27;;
43511;SDS011;34054;52.100;5.116;2022-11-20T02:16:36;12.32;;;11.00;;
43511;SDS011;34054;52.100;5.116;2022-11-20T02:17:15;12.57;;;11.32;;
43511;SDS011;34054;52.100;5.116;2022-11-20T02:17:47;17.27;;;13.13;;
43511;SDS011;34054;52.100;5.116;2022-11-20T02:18:20;14.77;;;12.63;;
43511;SDS011;34054;52.100;5.116;2022-11-20T02:18:53;15.40;;;13.80;;
43511;SDS011;34054;52.100;5.116;2022-11-20T02:19:28;13.65;;;12.10;;
43511;SDS011;34054;52.100;5.116;2022-11-20T02:20:02;12.10;;;9.75;;
43511;SDS011;34054;52.100;5.116;2022-11-20T02:20:35;13.90;;;12.48;;
43511;SDS011;34054;52.100;5.116;2022-11-20T02:21:09;16.55;;;12.70;;
43511;SDS011;34054;52.100;5.116;2022-11-20T02:21:56;12.55;;;11.07;;
43511;SDS011;34054;52.100;5.116;2022-11-20T02:22:38;13.23;;;11.82;;
43511;SDS011;34054;52.100;5.116;2022-11-20T02:23:24;13.93;;;12.55;;
43511;SDS011;34054;52.100;5.116;2022-11-20T02:24:09;17.52;;;10.70;;
43511;SDS011;34054;52.100;5.116;2022-11-20T02:24:44;16.40;;;11.75;;
43511;SDS011;34054;52.100;5.116;2022-11-20T02:25:18;14.80;;;12.75;;
43511;SDS011;34054;52.100;5.116;2022-11-20T02:25:51;12.60;;;11.45;;
43511;SDS011;34054;52.100;5.116;2022-11-20T02:26:29;15.60;;;11.27;;
43511;SDS011;34054;52.100;5.116;2022-11-20T02:27:06;12.27;;;10.80;;
43511;SDS011;34054;52.100;5.116;2022-11-20T02:27:41;15.48;;;13.07;;
43511;SDS011;34054;52.100;5.116;2022-11-20T02:28:14;15.15;;;13.65;;
43511;SDS011;34054;52.100;5.116;2022-11-20T02:28:47;12.52;;;10.60;;
43511;SDS011;34054;52.100;5.116;2022-11-20T02:29:23;16.25;;;12.48;;
43511;SDS011;34054;52.100;5.116;2022-11-20T02:30:00;14.10;;;11.30;;
43511;SDS011;34054;52.100;5.116;2022-11-20T02:30:35;13.77;;;12.38;;
43511;SDS011;34054;52.100;5.116;2022-11-20T02:31:06;13.20;;;11.68;;
43511;SDS011;34054;52.100;5.116;2022-11-20T02:31:40;11.45;;;10.13;;
43511;SDS011;34054;52.100;5.116;2022-11-20T02:32:17;13.35;;;11.30;;
43511;SDS011;34054;52.100;5.116;2022-11-20T02:32:50;14.05;;;12.45;;
43511;SDS011;34054;52.100;5.116;2022-11-20T02:33:23;13.20;;;11.77;;
43511;SDS011;34054;52.100;5.116;2022-11-20T02:33:55;15.32;;;12.40;;
43511;SDS011;34054;52.100;5.116;2022-11-20T02:34:28;17.30;;;10.65;;
43511;SDS011;34054;52.100;5.116;2022-11-20T02:35:06;14.00;;;11.63;;
43511;SDS011;34054;52.100;5.116;2022-11-20T02:35:41;14.43;;;12.15;;
43511;SDS011;34054;52.100;5.116;2022-11-20T02:36:15;12.85;;;10.25;;
43511;SDS011;34054;52.100;5.116;2022-11-20T02:36:48;12.65;;;11.40;;
43511;SDS011;34054;52.100;5.116;2022-11-20T02:37:23;15.73;;;12.55;;
43511;SDS011;34054;52.100;5.116;2022-11-20T02:38:02;13.07;;;11.82;;
43511;SDS011;34054;52.100;5.116;2022-11-20T02:38:35;15.35;;;13.10;;
43511;SDS011;34054;52.100;5.116;2022-11-20T02:39:08;19.13;;;12.90;;
43511;SDS011;34054;52.100;5.116;2022-11-20T02:39:44;13.20;;;11.90;;
43511;SDS011;34054;52.100;5.116;2022-11-20T02:40:19;13.35;;;11.30;;
43511;SDS011;34054;52.100;5.116;2022-11-20T02:40:51;12.48;;;11.27;;
43511;SDS011;34054;52.100;5.116;2022-11-20T02:41:29;13.63;;;12.32;;
43511;SDS011;34054;52.100;5.116;2022-11-20T02:42:04;17.08;;;13.55;;
43511;SDS011;34054;52.100;5.116;2022-11-20T02:42:36;13.02;;;11.00;;
43511;SDS011;34054;52.100;5.116;2022-11-20T02:43:08;12.07;;;10.80;;
43511;SDS011;34054;52.100;5.116;2022-11-20T02:43:41;19.00;;;11.32;;
43511;SDS011;34054;52.100;5.116;2022-11-20T02:44:13;13.18;;;10.48;;
43511;SDS011;34054;52.100;5.116;2022-11-20T02:44:44;14.48;;;13.10;;
43511;SDS011;34054;52.100;5.116;2022-11-20T02:45:17;13.65;;;12.18;;
43511;SDS011;34054;52.100;5.116;2022-11-20T02:45:49;13.15;;;11.90;;
43511;SDS011;34054;52.100;5.116;2022-11-20T02:46:21;11.77;;;10.52;;
43511;SDS011;34054;52.100;5.116;2022-11-20T02:46:56;14.02;;;11.85;;
43511;SDS011;34054;52.100;5.116;2022-11-20T02:47:28;11.23;;;9.73;;
43511;SDS011;34054;52.100;5.116;2022-11-20T02:47:59;12.38;;;11.07;;
43511;SDS011;34054;52.100;5.116;2022-11-20T02:48:32;14.60;;;11.02;;
43511;SDS011;34054;52.100;5.116;2022-11-20T02:49:04;15.15;;;13.80;;
43511;SDS011;34054;52.100;5.116;2022-11-20T02:49:36;13.13;;;11.85;;
43511;SDS011;34054;52.100;5.116;2022-11-20T02:50:08;13.05;;;11.77;;
43511;SDS011;34054;52.100;5.116;2022-11-20T02:50:40;12.57;;;11.43;;
43511;SDS011;34054;52.100;5.116;2022-11-20T02:51:12;11.85;;;10.65;;
43511;SDS011;34054;52.100;5.116;2022-11-20T02:51:44;12.98;;;11.70;;
43511;SDS011;34054;52.100;5.116;2022-11-20T02:52:16;13.13;;;11.82;;
43511;SDS011;34054;52.100;5.116;2022-11-20T02:52:48;12.65;;;9.45;;
43511;SDS011;34054;52.100;5.116;2022-11-20T02:53:19;16.67;;;11.93;;
43511;SDS011;34054;52.100;5.116;2022-11-20T02:53:51;13.18;;;11.88;;
43511;SDS011;34054;52.100;5.116;2022-11-20T02:54:25;13.00;;;11.30;;
43511;SDS011;34054;52.100;5.116;2022-11-20T02:54:57;14.77;;;11.50;;
43511;SDS011;34054;52.100;5.116;2022-11-20T02:55:29;15.32;;;13.65;;
43511;SDS011;34054;52.100;5.116;2022-11-20T02:56:02;13.20;;;11.90;;
43511;SDS011;34054;52.100;5.116;2022-11-20T02:56:34;12.65;;;11.45;;
43511;SDS011;34054;52.100;5.116;2022-11-20T02:57:08;12.82;;;10.52;;
43511;SDS011;34054;52.100;5.116;2022-11-20T02:57:40;12.80;;;11.52;;
43511;SDS011;34054;52.100;5.116;2022-11-20T02:58:12;15.63;;;11.30;;
43511;SDS011;34054;52.100;5.116;2022-11-20T02:58:44;13.35;;;12.10;;
43511;SDS011;34054;52.100;5.116;2022-11-20T02:59:15;18.17;;;14.63;;
43511;SDS011;34054;52.100;5.116;2022-11-20T02:59:48;16.80;;;15.20;;
43511;SDS011;34054;52.100;5.116;2022-11-20T03:00:20;17.08;;;14.98;;
43511;SDS011;34054;52.100;5.116;2022-11-20T03:00:51;18.98;;;16.77;;
43511;SDS011;34054;52.100;5.116;2022-11-20T03:01:24;18.95;;;15.15;;
43511;SDS011;34054;52.100;5.116;2022-11-20T03:01:56;17.65;;;15.93;;
43511;SDS011;34054;52.100;5.116;2022-11-20T03:02:29;19.13;;;17.15;;
43511;SDS011;34054;52.100;5.116;2022-11-20T03:03:01;23.02;;;18.10;;
43511;SDS011;34054;52.100;5.116;2022-11-20T03:03:34;18.25;;;16.48;;
43511;SDS011;34054;52.100;5.116;2022-11-20T03:04:05;18.35;;;16.65;;
43511;SDS011;34054;52.100;5.116;2022-11-20T03:04:37;18.75;;;16.45;;
43511;SDS011;34054;52.100;5.116;2022-11-20T03:05:10;18.48;;;16.65;;
43511;SDS011;34054;52.100;5.116;2022-11-20T03:05:41;19.45;;;17.67;;
43511;SDS011;34054;52.100;5.116;2022-11-20T03:06:13;18.38;;;16.27;;
43511;SDS011;34054;52.100;5.116;2022-11-20T03:06:46;20.58;;;15.73;;
43511;SDS011;34054;52.100;5.116;2022-11-20T03:07:18;17.15;;;15.32;;
43511;SDS011;34054;52.100;5.116;2022-11-20T03:07:50;19.63;;;17.65;;
43511;SDS011;34054;52.100;5.116;2022-11-20T03:08:21;18.90;;;16.95;;
43511;SDS011;34054;52.100;5.116;2022-11-20T03:08:54;19.80;;;16.00;;
43511;SDS011;34054;52.100;5.116;2022-11-20T03:09:27;19.33;;;17.52;;
43511;SDS011;34054;52.100;5.116;2022-11-20T03:09:59;18.98;;;17.15;;
43511;SDS011;34054;52.100;5.116;2022-11-20T03:10:31;20.95;;;18.67;;
43511;SDS011;34054;52.100;5.116;2022-11-20T03:11:04;18.25;;;16.65;;
43511;SDS011;34054;52.100;5.116;2022-11-20T03:11:38;18.85;;;16.98;;
43511;SDS011;34054;52.100;5.116;2022-11-20T03:12:10;16.58;;;14.93;;
43511;SDS011;34054;52.100;5.116;2022-11-20T03:12:42;23.10;;;18.25;;
43511;SDS011;34054;52.100;5.116;2022-11-20T03:13:14;17.30;;;15.70;;
43511;SDS011;34054;52.100;5.116;2022-11-20T03:13:46;18.05;;;16.23;;
43511;SDS011;34054;52.100;5.116;2022-11-20T03:14:18;18.10;;;15.73;;
43511;SDS011;34054;52.100;5.116;2022-11-20T03:14:49;16.63;;;14.95;;
43511;SDS011;34054;52.100;5.116;2022-11-20T03:15:22;18.95;;;17.10;;
43511;SDS011;34054;52.100;5.116;2022-11-20T03:15:54;18.35;;;16.63;;
43511;SDS011;34054;52.100;5.116;2022-11-20T03:16:25;18.52;;;16.25;;
43511;SDS011;34054;52.100;5.116;2022-11-20T03:16:58;18.50;;;16.70;;
43511;SDS011;34054;52.100;5.116;2022-11-20T03:17:30;17.63;;;15.57;;
43511;SDS011;34054;52.100;5.116;2022-11-20T03:18:01;18.83;;;16.98;;
43511;SDS011;34054;52.100;5.116;2022-11-20T03:18:33;17.77;;;16.05;;
43511;SDS011;34054;52.100;5.116;2022-11-20T03:19:06;19.70;;;17.73;;
43511;SDS011;34054;52.100;5.116;2022-11-20T03:19:38;17.83;;;16.20;;
43511;SDS011;34054;52.100;5.116;2022-11-20T03:20:10;19.45;;;17.45;;